Terminal Aerodrome Forecast
Issued by NWS

Home | Current Version | Previous Version | Text Only | Print | Product List | Glossary On
Versions: 1 2 3 4 5 6 7 8 9 10 11 12 13
000
FTUS43 KAPX 240536
TAFAPN
TAF
KAPN 240536Z 2406/2506 21009KT 4SM -RA OVC006
     FM241000 21014G29KT P6SM VCSH OVC025
     FM241200 21016G31KT P6SM OVC025
     FM241700 19015G28KT P6SM OVC040
     FM241900 18013G26KT P6SM VCSH OVC035
     FM250000 22013G25KT P6SM -SHRA OVC025
     FM250500 23015G25KT P6SM -SHRA OVC015=

USA.gov is the U.S. government's official web portal to all federal, state and local government web resources and services.